EDT,Max TemperatureF,Mean TemperatureF,Min TemperatureF,Max Dew PointF,MeanDew PointF,Min DewpointF,Max Humidity, Mean Humidity, Min Humidity, Max Sea Level PressureIn, Mean Sea Level PressureIn, Min Sea Level PressureIn, Max VisibilityMiles, Mean VisibilityMiles, Min VisibilityMiles, Max Wind SpeedMPH, Mean Wind SpeedMPH, Max Gust SpeedMPH,PrecipitationIn, CloudCover, Events, WindDirDegrees
2013-6-1,72,66,61,64,61,60,100,88,78,30.02,29.99,29.96,10,8,6,14,9,23,0.00,1,,223
2013-6-2,69,66,62,63,62,61,100,92,81,29.96,29.92,29.88,9,8,5,16,10,29,0.00,7,,219
2013-6-3,66,64,62,65,63,62,100,99,94,29.90,29.86,29.81,10,3,0,15,10,29,1.31,8,Fog-Rain-Thunderstorm,225
2013-6-4,69,61,51,63,48,41,100,65,40,30.09,29.92,29.80,10,9,0,10,5,20,0.01,2,Fog,319
2013-6-5,68,59,50,51,47,41,89,65,40,30.20,30.17,30.09,10,10,10,10,3,,0.00,0,,167
2013-6-6,69,62,55,57,52,49,87,72,50,30.23,30.19,30.12,10,10,10,10,6,16,0.00,0,,153
2013-6-7,63,58,55,63,56,52,100,97,82,30.11,29.96,29.79,10,6,1,17,9,29,1.43,8,Rain,101
2013-6-8,70,64,57,64,61,57,100,94,73,30.01,29.77,29.59,10,6,0,17,12,31,0.08,5,Fog-Rain,217
2013-6-9,77,66,57,62,60,56,97,77,50,30.17,30.11,30.02,10,10,7,10,3,17,0.01,1,,234
2013-6-10,68,62,55,58,56,55,100,85,65,30.22,30.14,30.03,10,8,2,12,5,20,0.45,4,Rain,87
2013-6-11,66,60,55,65,61,55,100,98,93,30.03,29.74,29.56,10,3,0,15,9,26,1.56,8,Fog-Rain,200
2013-6-12,69,62,55,58,55,53,100,85,58,29.79,29.64,29.57,10,8,1,13,5,26,0.00,7,Rain,295
2013-6-13,66,60,55,55,53,50,100,84,60,29.83,29.76,29.63,10,9,4,17,4,25,0.21,5,Rain,80
2013-6-14,61,56,51,54,52,48,100,90,67,29.76,29.65,29.55,10,6,2,22,15,34,0.85,7,Rain,40
2013-6-15,73,64,55,60,53,44,96,71,37,29.97,29.89,29.76,10,10,10,8,4,20,0.00,0,,217
2013-6-16,73,66,61,63,61,57,100,89,63,29.97,29.89,29.80,10,9,7,14,7,25,0.01,3,,220
2013-6-17,75,67,61,65,63,60,97,88,76,29.93,29.88,29.81,10,9,6,14,5,23,0.00,1,,224
2013-6-18,75,68,60,65,62,59,100,91,64,29.95,29.91,29.88,10,8,2,13,5,17,0.03,4,Rain,77
2013-6-19,70,62,54,61,53,45,100,75,42,30.17,29.97,29.85,10,9,5,13,7,22,0.05,4,Rain,32
2013-6-20,73,62,53,58,54,50,93,70,53,30.31,30.27,30.18,10,10,10,12,4,21,0.00,0,,212
2013-6-21,72,67,62,59,55,51,75,67,57,30.31,30.29,30.26,10,10,10,13,8,26,0.00,0,,220
2013-6-22,77,70,64,62,59,54,90,75,51,30.27,30.24,30.19,10,10,10,13,7,20,0.00,0,,224
2013-6-23,73,68,64,68,65,62,94,86,73,30.21,30.14,30.09,10,8,2,17,9,29,0.00,4,,225
2013-6-24,82,75,68,71,68,64,96,85,69,30.07,30.00,29.91,10,5,0,15,9,31,0.01,4,Fog-Thunderstorm,233
2013-6-25,86,76,68,68,66,64,93,79,51,29.92,29.87,29.78,10,8,5,13,5,22,0.00,0,,229
2013-6-26,84,76,69,71,68,66,93,81,63,29.86,29.79,29.75,10,7,5,12,5,24,0.02,2,Rain,227
2013-6-27,70,66,64,67,64,63,100,93,83,29.87,29.82,29.78,10,3,0,10,3,,0.01,6,Fog-Thunderstorm,93
2013-6-28,70,67,64,70,66,63,100,96,88,29.77,29.65,29.60,7,2,0,16,8,29,0.59,8,Fog-Rain-Thunderstorm,189
2013-6-29,70,66,64,70,68,64,100,99,94,29.79,29.68,29.60,6,2,0,14,9,23,0.29,8,Fog-Rain-Thunderstorm,205
2013-6-30,73,70,66,70,68,66,100,98,88,30.01,29.89,29.78,9,3,0,10,7,18,0.02,8,Fog-Rain,211